sensor_id;sensor_type;location;lat;lon;timestamp;P1;durP1;ratioP1;P2;durP2;ratioP2
19923;SDS011;10124;53.068;18.224;2023-07-02T00:00:53;9.70;;;6.93;;
19923;SDS011;10124;53.068;18.224;2023-07-02T00:03:41;8.30;;;6.20;;
19923;SDS011;10124;53.068;18.224;2023-07-02T00:06:10;9.20;;;6.70;;
19923;SDS011;10124;53.068;18.224;2023-07-02T00:08:38;9.45;;;5.93;;
19923;SDS011;10124;53.068;18.224;2023-07-02T00:11:07;7.50;;;6.30;;
19923;SDS011;10124;53.068;18.224;2023-07-02T00:13:39;8.65;;;6.32;;
19923;SDS011;10124;53.068;18.224;2023-07-02T00:16:07;9.23;;;6.25;;
19923;SDS011;10124;53.068;18.224;2023-07-02T00:18:35;10.55;;;5.95;;
19923;SDS011;10124;53.068;18.224;2023-07-02T00:21:03;8.48;;;6.47;;
19923;SDS011;10124;53.068;18.224;2023-07-02T00:23:31;6.47;;;5.68;;
19923;SDS011;10124;53.068;18.224;2023-07-02T00:25:59;11.35;;;6.25;;
19923;SDS011;10124;53.068;18.224;2023-07-02T00:28:27;9.35;;;6.47;;
19923;SDS011;10124;53.068;18.224;2023-07-02T00:30:57;11.23;;;6.85;;
19923;SDS011;10124;53.068;18.224;2023-07-02T00:33:25;10.02;;;6.47;;
19923;SDS011;10124;53.068;18.224;2023-07-02T00:35:54;14.93;;;6.47;;
19923;SDS011;10124;53.068;18.224;2023-07-02T00:38:21;9.82;;;6.60;;
19923;SDS011;10124;53.068;18.224;2023-07-02T00:40:50;9.82;;;5.63;;
19923;SDS011;10124;53.068;18.224;2023-07-02T00:43:18;8.63;;;6.20;;
19923;SDS011;10124;53.068;18.224;2023-07-02T00:45:46;11.65;;;6.22;;
19923;SDS011;10124;53.068;18.224;2023-07-02T00:48:13;9.15;;;6.25;;
19923;SDS011;10124;53.068;18.224;2023-07-02T00:50:42;8.70;;;6.93;;
19923;SDS011;10124;53.068;18.224;2023-07-02T00:53:09;10.05;;;6.00;;
19923;SDS011;10124;53.068;18.224;2023-07-02T00:55:37;11.27;;;6.40;;
19923;SDS011;10124;53.068;18.224;2023-07-02T00:58:05;9.60;;;6.53;;
19923;SDS011;10124;53.068;18.224;2023-07-02T01:00:35;6.90;;;5.63;;
19923;SDS011;10124;53.068;18.224;2023-07-02T01:03:03;9.88;;;6.13;;
19923;SDS011;10124;53.068;18.224;2023-07-02T01:05:32;7.43;;;5.07;;
19923;SDS011;10124;53.068;18.224;2023-07-02T01:08:05;9.90;;;6.15;;
19923;SDS011;10124;53.068;18.224;2023-07-02T01:10:33;7.63;;;5.25;;
19923;SDS011;10124;53.068;18.224;2023-07-02T01:13:04;8.95;;;5.65;;
19923;SDS011;10124;53.068;18.224;2023-07-02T01:15:36;7.38;;;5.85;;
19923;SDS011;10124;53.068;18.224;2023-07-02T01:18:05;13.45;;;5.93;;
19923;SDS011;10124;53.068;18.224;2023-07-02T01:20:33;11.10;;;6.20;;
19923;SDS011;10124;53.068;18.224;2023-07-02T01:23:02;12.57;;;6.70;;
19923;SDS011;10124;53.068;18.224;2023-07-02T01:25:30;9.35;;;5.95;;
19923;SDS011;10124;53.068;18.224;2023-07-02T01:28:04;7.78;;;5.43;;
19923;SDS011;10124;53.068;18.224;2023-07-02T01:30:32;18.02;;;6.57;;
19923;SDS011;10124;53.068;18.224;2023-07-02T01:33:00;8.00;;;6.13;;
19923;SDS011;10124;53.068;18.224;2023-07-02T01:35:28;8.15;;;5.72;;
19923;SDS011;10124;53.068;18.224;2023-07-02T01:37:55;11.32;;;5.50;;
19923;SDS011;10124;53.068;18.224;2023-07-02T01:40:24;7.95;;;5.50;;
19923;SDS011;10124;53.068;18.224;2023-07-02T01:42:51;9.32;;;5.50;;
19923;SDS011;10124;53.068;18.224;2023-07-02T01:45:19;7.03;;;5.40;;
19923;SDS011;10124;53.068;18.224;2023-07-02T01:47:47;9.93;;;5.90;;
19923;SDS011;10124;53.068;18.224;2023-07-02T01:50:15;6.82;;;4.72;;
19923;SDS011;10124;53.068;18.224;2023-07-02T01:52:43;13.00;;;5.93;;
19923;SDS011;10124;53.068;18.224;2023-07-02T01:55:11;6.13;;;5.53;;
19923;SDS011;10124;53.068;18.224;2023-07-02T01:57:38;11.73;;;6.50;;
19923;SDS011;10124;53.068;18.224;2023-07-02T02:00:07;9.32;;;6.85;;
19923;SDS011;10124;53.068;18.224;2023-07-02T02:02:42;9.68;;;5.95;;
19923;SDS011;10124;53.068;18.224;2023-07-02T02:05:10;11.70;;;6.18;;
19923;SDS011;10124;53.068;18.224;2023-07-02T02:07:39;10.25;;;6.07;;
19923;SDS011;10124;53.068;18.224;2023-07-02T02:10:07;8.30;;;6.75;;
19923;SDS011;10124;53.068;18.224;2023-07-02T02:12:37;10.82;;;9.75;;
19923;SDS011;10124;53.068;18.224;2023-07-02T02:15:06;16.95;;;9.13;;
19923;SDS011;10124;53.068;18.224;2023-07-02T02:17:34;15.90;;;8.50;;
19923;SDS011;10124;53.068;18.224;2023-07-02T02:20:02;10.85;;;6.88;;
19923;SDS011;10124;53.068;18.224;2023-07-02T02:22:32;7.15;;;5.70;;
19923;SDS011;10124;53.068;18.224;2023-07-02T02:25:00;9.38;;;5.60;;
19923;SDS011;10124;53.068;18.224;2023-07-02T02:27:28;11.35;;;6.47;;
19923;SDS011;10124;53.068;18.224;2023-07-02T02:29:56;6.25;;;4.93;;
19923;SDS011;10124;53.068;18.224;2023-07-02T02:32:24;9.80;;;5.35;;
19923;SDS011;10124;53.068;18.224;2023-07-02T02:34:52;9.55;;;5.07;;
19923;SDS011;10124;53.068;18.224;2023-07-02T02:37:20;9.18;;;5.40;;
19923;SDS011;10124;53.068;18.224;2023-07-02T02:39:50;7.97;;;4.70;;
19923;SDS011;10124;53.068;18.224;2023-07-02T02:42:19;6.93;;;4.75;;
19923;SDS011;10124;53.068;18.224;2023-07-02T02:44:47;7.47;;;4.32;;
19923;SDS011;10124;53.068;18.224;2023-07-02T02:47:15;12.25;;;4.28;;
19923;SDS011;10124;53.068;18.224;2023-07-02T02:49:43;10.43;;;4.20;;
19923;SDS011;10124;53.068;18.224;2023-07-02T02:52:11;5.63;;;4.65;;
19923;SDS011;10124;53.068;18.224;2023-07-02T02:54:41;6.15;;;4.32;;
19923;SDS011;10124;53.068;18.224;2023-07-02T02:57:09;7.57;;;4.45;;
19923;SDS011;10124;53.068;18.224;2023-07-02T02:59:37;10.50;;;3.95;;
19923;SDS011;10124;53.068;18.224;2023-07-02T03:02:05;7.05;;;3.78;;
19923;SDS011;10124;53.068;18.224;2023-07-02T03:04:34;5.25;;;3.13;;
19923;SDS011;10124;53.068;18.224;2023-07-02T03:07:01;6.18;;;3.45;;
19923;SDS011;10124;53.068;18.224;2023-07-02T03:09:30;7.22;;;2.70;;
19923;SDS011;10124;53.068;18.224;2023-07-02T03:11:58;10.75;;;3.70;;
19923;SDS011;10124;53.068;18.224;2023-07-02T03:14:26;6.18;;;3.88;;
19923;SDS011;10124;53.068;18.224;2023-07-02T03:16:54;5.10;;;3.65;;
19923;SDS011;10124;53.068;18.224;2023-07-02T03:19:22;5.30;;;3.97;;
19923;SDS011;10124;53.068;18.224;2023-07-02T03:21:50;7.75;;;4.05;;
19923;SDS011;10124;53.068;18.224;2023-07-02T03:24:18;6.38;;;4.47;;
19923;SDS011;10124;53.068;18.224;2023-07-02T03:26:46;4.80;;;3.95;;
19923;SDS011;10124;53.068;18.224;2023-07-02T03:29:14;4.90;;;3.90;;
19923;SDS011;10124;53.068;18.224;2023-07-02T03:31:42;10.48;;;4.43;;
19923;SDS011;10124;53.068;18.224;2023-07-02T03:34:11;12.85;;;4.25;;
19923;SDS011;10124;53.068;18.224;2023-07-02T03:36:38;4.53;;;3.95;;
19923;SDS011;10124;53.068;18.224;2023-07-02T03:39:06;7.55;;;4.40;;
19923;SDS011;10124;53.068;18.224;2023-07-02T03:41:36;7.03;;;4.20;;
19923;SDS011;10124;53.068;18.224;2023-07-02T03:44:04;7.18;;;3.78;;
19923;SDS011;10124;53.068;18.224;2023-07-02T03:46:32;4.93;;;4.03;;
19923;SDS011;10124;53.068;18.224;2023-07-02T03:49:00;3.72;;;3.30;;
19923;SDS011;10124;53.068;18.224;2023-07-02T03:51:30;6.20;;;3.78;;
19923;SDS011;10124;53.068;18.224;2023-07-02T03:53:58;8.27;;;3.78;;
19923;SDS011;10124;53.068;18.224;2023-07-02T03:56:26;4.93;;;3.78;;
19923;SDS011;10124;53.068;18.224;2023-07-02T03:58:54;4.75;;;3.38;;
19923;SDS011;10124;53.068;18.224;2023-07-02T04:01:21;7.22;;;3.17;;
19923;SDS011;10124;53.068;18.224;2023-07-02T04:03:50;6.10;;;2.90;;
19923;SDS011;10124;53.068;18.224;2023-07-02T04:06:19;4.72;;;2.92;;
19923;SDS011;10124;53.068;18.224;2023-07-02T04:08:47;5.60;;;4.07;;
19923;SDS011;10124;53.068;18.224;2023-07-02T04:11:15;5.60;;;3.40;;
19923;SDS011;10124;53.068;18.224;2023-07-02T04:13:43;4.10;;;3.65;;
19923;SDS011;10124;53.068;18.224;2023-07-02T04:16:11;5.97;;;3.20;;
19923;SDS011;10124;53.068;18.224;2023-07-02T04:18:39;4.30;;;3.10;;
19923;SDS011;10124;53.068;18.224;2023-07-02T04:21:07;6.18;;;3.20;;
19923;SDS011;10124;53.068;18.224;2023-07-02T04:23:35;5.07;;;3.20;;
19923;SDS011;10124;53.068;18.224;2023-07-02T04:26:03;4.68;;;3.25;;
19923;SDS011;10124;53.068;18.224;2023-07-02T04:28:51;4.20;;;3.17;;
19923;SDS011;10124;53.068;18.224;2023-07-02T04:31:19;6.53;;;3.47;;
19923;SDS011;10124;53.068;18.224;2023-07-02T04:33:47;5.40;;;2.90;;
19923;SDS011;10124;53.068;18.224;2023-07-02T04:36:15;7.90;;;3.85;;
19923;SDS011;10124;53.068;18.224;2023-07-02T04:38:43;5.15;;;3.53;;
19923;SDS011;10124;53.068;18.224;2023-07-02T04:41:11;7.45;;;3.33;;
19923;SDS011;10124;53.068;18.224;2023-07-02T04:43:39;6.57;;;3.55;;
19923;SDS011;10124;53.068;18.224;2023-07-02T04:46:07;4.93;;;3.42;;
19923;SDS011;10124;53.068;18.224;2023-07-02T04:48:37;5.53;;;3.70;;
19923;SDS011;10124;53.068;18.224;2023-07-02T04:51:05;4.50;;;2.78;;
19923;SDS011;10124;53.068;18.224;2023-07-02T04:53:33;5.82;;;3.33;;
19923;SDS011;10124;53.068;18.224;2023-07-02T04:56:00;3.47;;;2.88;;
19923;SDS011;10124;53.068;18.224;2023-07-02T04:58:29;4.80;;;3.30;;
19923;SDS011;10124;53.068;18.224;2023-07-02T05:00:57;2.60;;;2.30;;
19923;SDS011;10124;53.068;18.224;2023-07-02T05:03:25;3.92;;;2.67;;
19923;SDS011;10124;53.068;18.224;2023-07-02T05:05:54;3.30;;;2.80;;
19923;SDS011;10124;53.068;18.224;2023-07-02T05:08:22;6.75;;;3.00;;
19923;SDS011;10124;53.068;18.224;2023-07-02T05:10:50;3.85;;;2.72;;
19923;SDS011;10124;53.068;18.224;2023-07-02T05:13:18;2.83;;;2.63;;
19923;SDS011;10124;53.068;18.224;2023-07-02T05:15:46;6.13;;;2.70;;
19923;SDS011;10124;53.068;18.224;2023-07-02T05:18:14;6.30;;;2.67;;
19923;SDS011;10124;53.068;18.224;2023-07-02T05:20:41;3.95;;;2.83;;
19923;SDS011;10124;53.068;18.224;2023-07-02T05:23:10;3.00;;;2.08;;
19923;SDS011;10124;53.068;18.224;2023-07-02T05:25:38;3.28;;;2.78;;
19923;SDS011;10124;53.068;18.224;2023-07-02T05:28:06;5.47;;;3.15;;
19923;SDS011;10124;53.068;18.224;2023-07-02T05:30:33;5.15;;;3.92;;
19923;SDS011;10124;53.068;18.224;2023-07-02T05:33:01;3.80;;;3.33;;
19923;SDS011;10124;53.068;18.224;2023-07-02T05:35:29;4.63;;;2.90;;
19923;SDS011;10124;53.068;18.224;2023-07-02T05:37:57;11.50;;;3.38;;
19923;SDS011;10124;53.068;18.224;2023-07-02T05:40:25;4.30;;;2.75;;
19923;SDS011;10124;53.068;18.224;2023-07-02T05:42:53;6.90;;;2.78;;
19923;SDS011;10124;53.068;18.224;2023-07-02T05:45:21;3.92;;;2.45;;
19923;SDS011;10124;53.068;18.224;2023-07-02T05:47:50;3.75;;;2.70;;
19923;SDS011;10124;53.068;18.224;2023-07-02T05:50:18;3.92;;;2.28;;
19923;SDS011;10124;53.068;18.224;2023-07-02T05:52:45;2.25;;;2.05;;
19923;SDS011;10124;53.068;18.224;2023-07-02T05:55:13;3.00;;;2.10;;
19923;SDS011;10124;53.068;18.224;2023-07-02T05:57:41;3.63;;;2.00;;
19923;SDS011;10124;53.068;18.224;2023-07-02T06:00:09;1.95;;;1.85;;
19923;SDS011;10124;53.068;18.224;2023-07-02T06:02:38;2.38;;;2.17;;
19923;SDS011;10124;53.068;18.224;2023-07-02T06:05:06;3.88;;;2.03;;
19923;SDS011;10124;53.068;18.224;2023-07-02T06:07:34;2.22;;;2.00;;
19923;SDS011;10124;53.068;18.224;2023-07-02T06:10:05;2.58;;;1.67;;
19923;SDS011;10124;53.068;18.224;2023-07-02T06:12:33;2.75;;;2.13;;
19923;SDS011;10124;53.068;18.224;2023-07-02T06:15:01;4.40;;;1.98;;
19923;SDS011;10124;53.068;18.224;2023-07-02T06:17:30;5.57;;;2.50;;
19923;SDS011;10124;53.068;18.224;2023-07-02T06:20:02;3.25;;;1.70;;
19923;SDS011;10124;53.068;18.224;2023-07-02T06:22:31;2.47;;;1.88;;
19923;SDS011;10124;53.068;18.224;2023-07-02T06:24:59;1.80;;;1.67;;
19923;SDS011;10124;53.068;18.224;2023-07-02T06:27:31;1.77;;;1.60;;
19923;SDS011;10124;53.068;18.224;2023-07-02T06:29:59;3.67;;;1.20;;
19923;SDS011;10124;53.068;18.224;2023-07-02T06:32:27;4.75;;;1.58;;
19923;SDS011;10124;53.068;18.224;2023-07-02T06:34:55;2.35;;;1.40;;
19923;SDS011;10124;53.068;18.224;2023-07-02T06:37:23;2.00;;;1.63;;
19923;SDS011;10124;53.068;18.224;2023-07-02T06:39:51;3.58;;;2.88;;
19923;SDS011;10124;53.068;18.224;2023-07-02T06:42:19;3.95;;;1.63;;
19923;SDS011;10124;53.068;18.224;2023-07-02T06:44:48;2.92;;;1.80;;
19923;SDS011;10124;53.068;18.224;2023-07-02T06:47:16;2.63;;;1.77;;
19923;SDS011;10124;53.068;18.224;2023-07-02T06:49:47;3.47;;;1.75;;
19923;SDS011;10124;53.068;18.224;2023-07-02T06:52:15;7.10;;;2.00;;
19923;SDS011;10124;53.068;18.224;2023-07-02T06:54:43;5.30;;;1.95;;
19923;SDS011;10124;53.068;18.224;2023-07-02T06:57:12;5.22;;;1.70;;
19923;SDS011;10124;53.068;18.224;2023-07-02T06:59:40;4.25;;;2.03;;
19923;SDS011;10124;53.068;18.224;2023-07-02T07:02:08;1.80;;;1.45;;
19923;SDS011;10124;53.068;18.224;2023-07-02T07:04:36;4.45;;;1.77;;
19923;SDS011;10124;53.068;18.224;2023-07-02T07:07:04;3.50;;;2.22;;
19923;SDS011;10124;53.068;18.224;2023-07-02T07:09:32;2.22;;;1.63;;
19923;SDS011;10124;53.068;18.224;2023-07-02T07:12:00;5.10;;;1.90;;
19923;SDS011;10124;53.068;18.224;2023-07-02T07:14:28;3.97;;;1.77;;
19923;SDS011;10124;53.068;18.224;2023-07-02T07:16:56;3.85;;;1.70;;
19923;SDS011;10124;53.068;18.224;2023-07-02T07:19:24;5.63;;;1.77;;
19923;SDS011;10124;53.068;18.224;2023-07-02T07:21:53;4.28;;;1.83;;
19923;SDS011;10124;53.068;18.224;2023-07-02T07:24:21;3.22;;;1.63;;
19923;SDS011;10124;53.068;18.224;2023-07-02T07:26:49;2.10;;;1.90;;
19923;SDS011;10124;53.068;18.224;2023-07-02T07:29:17;12.23;;;2.33;;
19923;SDS011;10124;53.068;18.224;2023-07-02T07:31:45;6.28;;;1.80;;
19923;SDS011;10124;53.068;18.224;2023-07-02T07:34:13;4.50;;;1.95;;
19923;SDS011;10124;53.068;18.224;2023-07-02T07:36:41;2.88;;;1.58;;
19923;SDS011;10124;53.068;18.224;2023-07-02T07:39:09;1.75;;;1.35;;
19923;SDS011;10124;53.068;18.224;2023-07-02T07:41:37;2.85;;;1.80;;
19923;SDS011;10124;53.068;18.224;2023-07-02T07:44:06;1.90;;;1.70;;
19923;SDS011;10124;53.068;18.224;2023-07-02T07:46:34;2.55;;;1.63;;
19923;SDS011;10124;53.068;18.224;2023-07-02T07:49:02;5.10;;;2.20;;
19923;SDS011;10124;53.068;18.224;2023-07-02T07:51:30;6.90;;;1.70;;
19923;SDS011;10124;53.068;18.224;2023-07-02T07:53:58;6.90;;;2.00;;
19923;SDS011;10124;53.068;18.224;2023-07-02T07:56:26;5.22;;;1.75;;
19923;SDS011;10124;53.068;18.224;2023-07-02T07:58:54;2.45;;;1.67;;
19923;SDS011;10124;53.068;18.224;2023-07-02T08:01:25;4.70;;;2.30;;
19923;SDS011;10124;53.068;18.224;2023-07-02T08:03:55;6.28;;;2.17;;
19923;SDS011;10124;53.068;18.224;2023-07-02T08:06:23;3.22;;;2.15;;
19923;SDS011;10124;53.068;18.224;2023-07-02T08:08:51;4.53;;;2.20;;
19923;SDS011;10124;53.068;18.224;2023-07-02T08:11:19;4.85;;;1.85;;
19923;SDS011;10124;53.068;18.224;2023-07-02T08:13:47;2.08;;;1.58;;
19923;SDS011;10124;53.068;18.224;2023-07-02T08:16:18;4.63;;;1.88;;
19923;SDS011;10124;53.068;18.224;2023-07-02T08:18:46;5.15;;;1.60;;
19923;SDS011;10124;53.068;18.224;2023-07-02T08:21:14;4.07;;;2.72;;
19923;SDS011;10124;53.068;18.224;2023-07-02T08:23:42;2.33;;;1.73;;
19923;SDS011;10124;53.068;18.224;2023-07-02T08:26:11;2.88;;;1.40;;
19923;SDS011;10124;53.068;18.224;2023-07-02T08:28:39;4.60;;;2.15;;
19923;SDS011;10124;53.068;18.224;2023-07-02T08:31:08;8.65;;;1.73;;
19923;SDS011;10124;53.068;18.224;2023-07-02T08:33:35;6.38;;;1.90;;
19923;SDS011;10124;53.068;18.224;2023-07-02T08:36:03;3.13;;;2.08;;
19923;SDS011;10124;53.068;18.224;2023-07-02T08:38:31;6.43;;;1.67;;
19923;SDS011;10124;53.068;18.224;2023-07-02T08:40:59;9.57;;;2.00;;
19923;SDS011;10124;53.068;18.224;2023-07-02T08:43:27;2.22;;;1.70;;
19923;SDS011;10124;53.068;18.224;2023-07-02T08:45:56;4.95;;;1.65;;
19923;SDS011;10124;53.068;18.224;2023-07-02T08:48:25;3.58;;;1.58;;
19923;SDS011;10124;53.068;18.224;2023-07-02T08:50:56;2.15;;;1.50;;
19923;SDS011;10124;53.068;18.224;2023-07-02T08:53:23;3.10;;;1.67;;
19923;SDS011;10124;53.068;18.224;2023-07-02T08:55:56;3.65;;;1.75;;
19923;SDS011;10124;53.068;18.224;2023-07-02T08:58:24;5.90;;;1.45;;
19923;SDS011;10124;53.068;18.224;2023-07-02T09:01:08;6.00;;;1.55;;
19923;SDS011;10124;53.068;18.224;2023-07-02T09:03:37;6.70;;;1.50;;
19923;SDS011;10124;53.068;18.224;2023-07-02T09:06:06;2.72;;;1.50;;
19923;SDS011;10124;53.068;18.224;2023-07-02T09:08:35;4.43;;;1.42;;
19923;SDS011;10124;53.068;18.224;2023-07-02T09:11:10;2.95;;;1.60;;
19923;SDS011;10124;53.068;18.224;2023-07-02T09:13:51;2.42;;;1.60;;
19923;SDS011;10124;53.068;18.224;2023-07-02T09:16:24;4.57;;;1.95;;
19923;SDS011;10124;53.068;18.224;2023-07-02T09:21:43;4.47;;;1.85;;
19923;SDS011;10124;53.068;18.224;2023-07-02T09:24:15;3.00;;;1.70;;
19923;SDS011;10124;53.068;18.224;2023-07-02T09:26:51;4.80;;;1.90;;
19923;SDS011;10124;53.068;18.224;2023-07-02T09:31:50;2.53;;;1.50;;
19923;SDS011;10124;53.068;18.224;2023-07-02T09:34:36;4.97;;;2.05;;
19923;SDS011;10124;53.068;18.224;2023-07-02T09:37:06;2.42;;;1.58;;
19923;SDS011;10124;53.068;18.224;2023-07-02T09:39:35;5.53;;;2.00;;
19923;SDS011;10124;53.068;18.224;2023-07-02T09:42:06;3.35;;;2.40;;
19923;SDS011;10124;53.068;18.224;2023-07-02T09:44:35;7.38;;;1.88;;
19923;SDS011;10124;53.068;18.224;2023-07-02T09:49:32;5.97;;;1.70;;
19923;SDS011;10124;53.068;18.224;2023-07-02T09:52:02;17.38;;;2.20;;
19923;SDS011;10124;53.068;18.224;2023-07-02T09:54:30;4.43;;;1.88;;
19923;SDS011;10124;53.068;18.224;2023-07-02T09:56:59;6.45;;;1.98;;
19923;SDS011;10124;53.068;18.224;2023-07-02T09:59:27;5.13;;;2.10;;
19923;SDS011;10124;53.068;18.224;2023-07-02T10:01:56;4.03;;;2.20;;
19923;SDS011;10124;53.068;18.224;2023-07-02T10:04:24;10.85;;;3.00;;
19923;SDS011;10124;53.068;18.224;2023-07-02T10:06:54;7.90;;;2.45;;
19923;SDS011;10124;53.068;18.224;2023-07-02T10:12:17;3.00;;;2.20;;
19923;SDS011;10124;53.068;18.224;2023-07-02T10:14:56;3.22;;;2.50;;
19923;SDS011;10124;53.068;18.224;2023-07-02T10:17:29;6.57;;;2.00;;
19923;SDS011;10124;53.068;18.224;2023-07-02T10:20:00;2.97;;;1.92;;
19923;SDS011;10124;53.068;18.224;2023-07-02T10:22:50;5.97;;;2.13;;
19923;SDS011;10124;53.068;18.224;2023-07-02T10:25:27;5.88;;;1.98;;
19923;SDS011;10124;53.068;18.224;2023-07-02T10:27:55;4.07;;;2.38;;
19923;SDS011;10124;53.068;18.224;2023-07-02T10:30:31;3.67;;;2.15;;
19923;SDS011;10124;53.068;18.224;2023-07-02T10:35:41;8.70;;;2.40;;
19923;SDS011;10124;53.068;18.224;2023-07-02T10:40:46;5.85;;;2.10;;
19923;SDS011;10124;53.068;18.224;2023-07-02T10:43:23;4.43;;;2.45;;
19923;SDS011;10124;53.068;18.224;2023-07-02T10:45:55;7.05;;;2.13;;
19923;SDS011;10124;53.068;18.224;2023-07-02T10:48:24;3.10;;;1.85;;
19923;SDS011;10124;53.068;18.224;2023-07-02T10:50:52;10.82;;;2.30;;
19923;SDS011;10124;53.068;18.224;2023-07-02T10:53:21;4.85;;;2.25;;
19923;SDS011;10124;53.068;18.224;2023-07-02T10:55:56;4.07;;;1.73;;
19923;SDS011;10124;53.068;18.224;2023-07-02T10:58:25;7.88;;;2.17;;
19923;SDS011;10124;53.068;18.224;2023-07-02T11:00:53;4.28;;;2.00;;
19923;SDS011;10124;53.068;18.224;2023-07-02T11:03:22;4.72;;;1.95;;
19923;SDS011;10124;53.068;18.224;2023-07-02T11:05:52;8.13;;;2.03;;
19923;SDS011;10124;53.068;18.224;2023-07-02T11:08:21;4.25;;;1.90;;
19923;SDS011;10124;53.068;18.224;2023-07-02T11:11:03;3.75;;;1.52;;
19923;SDS011;10124;53.068;18.224;2023-07-02T11:13:43;3.30;;;1.75;;
19923;SDS011;10124;53.068;18.224;2023-07-02T11:16:19;2.65;;;1.80;;
19923;SDS011;10124;53.068;18.224;2023-07-02T11:18:51;6.80;;;1.90;;
19923;SDS011;10124;53.068;18.224;2023-07-02T11:21:19;13.25;;;2.63;;
19923;SDS011;10124;53.068;18.224;2023-07-02T11:23:47;5.60;;;2.45;;
19923;SDS011;10124;53.068;18.224;2023-07-02T11:26:15;2.65;;;1.75;;
19923;SDS011;10124;53.068;18.224;2023-07-02T11:28:48;6.70;;;2.10;;
19923;SDS011;10124;53.068;18.224;2023-07-02T11:31:26;4.05;;;1.73;;
19923;SDS011;10124;53.068;18.224;2023-07-02T11:33:57;7.72;;;1.92;;
19923;SDS011;10124;53.068;18.224;2023-07-02T11:36:25;3.75;;;2.05;;
19923;SDS011;10124;53.068;18.224;2023-07-02T11:38:54;9.25;;;1.58;;
19923;SDS011;10124;53.068;18.224;2023-07-02T11:41:22;8.88;;;1.92;;
19923;SDS011;10124;53.068;18.224;2023-07-02T11:43:51;5.30;;;2.40;;
19923;SDS011;10124;53.068;18.224;2023-07-02T11:46:19;8.77;;;2.85;;
19923;SDS011;10124;53.068;18.224;2023-07-02T11:48:47;4.80;;;1.90;;
19923;SDS011;10124;53.068;18.224;2023-07-02T11:51:15;3.28;;;1.65;;
19923;SDS011;10124;53.068;18.224;2023-07-02T11:53:43;7.72;;;1.98;;
19923;SDS011;10124;53.068;18.224;2023-07-02T11:56:11;6.57;;;1.90;;
19923;SDS011;10124;53.068;18.224;2023-07-02T11:58:40;4.03;;;2.22;;
19923;SDS011;10124;53.068;18.224;2023-07-02T12:01:09;6.22;;;2.00;;
19923;SDS011;10124;53.068;18.224;2023-07-02T12:03:37;6.82;;;2.08;;
19923;SDS011;10124;53.068;18.224;2023-07-02T12:06:05;3.33;;;2.30;;
19923;SDS011;10124;53.068;18.224;2023-07-02T12:08:33;7.53;;;2.35;;
19923;SDS011;10124;53.068;18.224;2023-07-02T12:11:01;5.43;;;2.28;;
19923;SDS011;10124;53.068;18.224;2023-07-02T12:13:29;4.28;;;1.80;;
19923;SDS011;10124;53.068;18.224;2023-07-02T12:15:57;3.65;;;2.10;;
19923;SDS011;10124;53.068;18.224;2023-07-02T12:18:25;4.30;;;1.75;;
19923;SDS011;10124;53.068;18.224;2023-07-02T12:20:53;2.53;;;1.60;;
19923;SDS011;10124;53.068;18.224;2023-07-02T12:23:21;3.58;;;1.65;;
19923;SDS011;10124;53.068;18.224;2023-07-02T12:25:49;9.75;;;2.25;;
19923;SDS011;10124;53.068;18.224;2023-07-02T12:28:17;4.78;;;1.80;;
19923;SDS011;10124;53.068;18.224;2023-07-02T12:30:45;8.75;;;1.95;;
19923;SDS011;10124;53.068;18.224;2023-07-02T12:33:13;9.43;;;2.35;;
19923;SDS011;10124;53.068;18.224;2023-07-02T12:35:45;5.00;;;1.77;;
19923;SDS011;10124;53.068;18.224;2023-07-02T12:38:14;3.65;;;2.03;;
19923;SDS011;10124;53.068;18.224;2023-07-02T12:40:41;4.97;;;2.03;;
19923;SDS011;10124;53.068;18.224;2023-07-02T12:43:10;7.75;;;2.00;;
19923;SDS011;10124;53.068;18.224;2023-07-02T12:45:38;4.80;;;2.25;;
19923;SDS011;10124;53.068;18.224;2023-07-02T12:48:06;8.73;;;2.10;;
19923;SDS011;10124;53.068;18.224;2023-07-02T12:50:36;7.00;;;2.58;;
19923;SDS011;10124;53.068;18.224;2023-07-02T12:53:05;6.65;;;2.50;;
19923;SDS011;10124;53.068;18.224;2023-07-02T12:55:33;6.07;;;3.03;;
19923;SDS011;10124;53.068;18.224;2023-07-02T12:58:01;8.60;;;2.15;;
19923;SDS011;10124;53.068;18.224;2023-07-02T13:00:28;4.63;;;2.30;;
19923;SDS011;10124;53.068;18.224;2023-07-02T13:02:57;7.30;;;3.50;;
19923;SDS011;10124;53.068;18.224;2023-07-02T13:05:31;6.18;;;2.53;;
19923;SDS011;10124;53.068;18.224;2023-07-02T13:08:00;7.50;;;2.53;;
19923;SDS011;10124;53.068;18.224;2023-07-02T13:10:28;9.15;;;2.97;;
19923;SDS011;10124;53.068;18.224;2023-07-02T13:12:57;5.55;;;2.60;;
19923;SDS011;10124;53.068;18.224;2023-07-02T13:15:35;6.60;;;2.85;;
19923;SDS011;10124;53.068;18.224;2023-07-02T13:18:03;9.75;;;3.45;;
19923;SDS011;10124;53.068;18.224;2023-07-02T13:20:31;10.00;;;2.25;;
19923;SDS011;10124;53.068;18.224;2023-07-02T13:23:00;4.72;;;2.25;;
19923;SDS011;10124;53.068;18.224;2023-07-02T13:25:27;5.50;;;2.90;;
19923;SDS011;10124;53.068;18.224;2023-07-02T13:27:56;7.15;;;2.75;;
19923;SDS011;10124;53.068;18.224;2023-07-02T13:30:23;4.35;;;2.13;;
19923;SDS011;10124;53.068;18.224;2023-07-02T13:32:52;5.30;;;2.60;;
19923;SDS011;10124;53.068;18.224;2023-07-02T13:35:21;5.82;;;2.50;;
19923;SDS011;10124;53.068;18.224;2023-07-02T13:37:49;6.30;;;2.72;;
19923;SDS011;10124;53.068;18.224;2023-07-02T13:40:17;8.55;;;3.00;;
19923;SDS011;10124;53.068;18.224;2023-07-02T13:42:45;9.80;;;3.08;;
19923;SDS011;10124;53.068;18.224;2023-07-02T13:45:13;7.93;;;3.10;;
19923;SDS011;10124;53.068;18.224;2023-07-02T13:47:41;5.75;;;3.30;;
19923;SDS011;10124;53.068;18.224;2023-07-02T13:50:09;7.25;;;2.25;;
19923;SDS011;10124;53.068;18.224;2023-07-02T13:52:37;10.55;;;3.45;;
19923;SDS011;10124;53.068;18.224;2023-07-02T13:55:05;7.93;;;2.60;;
19923;SDS011;10124;53.068;18.224;2023-07-02T13:57:33;4.13;;;2.50;;
19923;SDS011;10124;53.068;18.224;2023-07-02T14:00:01;7.22;;;2.95;;
19923;SDS011;10124;53.068;18.224;2023-07-02T14:02:32;10.65;;;3.10;;
19923;SDS011;10124;53.068;18.224;2023-07-02T14:05:00;4.53;;;2.50;;
19923;SDS011;10124;53.068;18.224;2023-07-02T14:07:28;9.80;;;3.17;;
19923;SDS011;10124;53.068;18.224;2023-07-02T14:09:56;14.75;;;2.95;;
19923;SDS011;10124;53.068;18.224;2023-07-02T14:12:24;14.80;;;3.00;;
19923;SDS011;10124;53.068;18.224;2023-07-02T14:14:52;8.57;;;2.95;;
19923;SDS011;10124;53.068;18.224;2023-07-02T14:17:20;7.97;;;2.58;;
19923;SDS011;10124;53.068;18.224;2023-07-02T14:19:52;9.93;;;3.38;;
19923;SDS011;10124;53.068;18.224;2023-07-02T14:22:20;10.13;;;3.10;;
19923;SDS011;10124;53.068;18.224;2023-07-02T14:24:49;9.35;;;3.60;;
19923;SDS011;10124;53.068;18.224;2023-07-02T14:27:17;5.25;;;2.95;;
19923;SDS011;10124;53.068;18.224;2023-07-02T14:29:46;8.27;;;3.10;;
19923;SDS011;10124;53.068;18.224;2023-07-02T14:32:14;12.45;;;3.35;;
19923;SDS011;10124;53.068;18.224;2023-07-02T14:34:42;5.13;;;2.80;;
19923;SDS011;10124;53.068;18.224;2023-07-02T14:37:10;10.52;;;3.55;;
19923;SDS011;10124;53.068;18.224;2023-07-02T14:39:38;15.32;;;4.03;;
19923;SDS011;10124;53.068;18.224;2023-07-02T14:42:13;7.05;;;3.15;;
19923;SDS011;10124;53.068;18.224;2023-07-02T14:44:41;12.02;;;3.63;;
19923;SDS011;10124;53.068;18.224;2023-07-02T14:47:09;6.63;;;3.15;;
19923;SDS011;10124;53.068;18.224;2023-07-02T14:49:38;9.40;;;3.30;;
19923;SDS011;10124;53.068;18.224;2023-07-02T14:52:06;7.88;;;3.22;;
19923;SDS011;10124;53.068;18.224;2023-07-02T14:54:34;12.55;;;3.20;;
19923;SDS011;10124;53.068;18.224;2023-07-02T14:57:03;8.13;;;2.85;;
19923;SDS011;10124;53.068;18.224;2023-07-02T14:59:30;8.65;;;3.25;;